This is the latest recevied weather packets stored in our database for station/object SV1TGC. If no packets are shown the sender has not sent any weather packets the latest 10 day(s).
| Time | Temp. | Humidity | Pressure | Rain* | Wind** | Luminosity | Snow |
|---|---|---|---|---|---|---|---|
| 1777713343 | 15° C | 44% | 1017.9 hPa | 0 mm | - | - | - |
| 1777710935 | 14.44° C | 47% | 1017.8 hPa | 0 mm | - | - | - |
| 1777710032 | 13.89° C | 50% | 1018 hPa | 0 mm | - | - | - |
| 1777707953 | 13.89° C | 48% | 1017.7 hPa | 0 mm | - | - | - |
| 1777701033 | 12.22° C | 59% | 1017.2 hPa | 0 mm | - | - | - |
| 1777698046 | 11.67° C | 62% | 1017.5 hPa | 0 mm | - | - | - |
| 1777695633 | 11.11° C | 64% | 1017.7 hPa | 0 mm | - | - | - |
| 1777695033 | 10.56° C | 68% | 1017.7 hPa | 0 mm | - | - | - |
| 1777693832 | 10° C | 72% | 1017.9 hPa | 0 mm | - | - | - |
| 1777693548 | 10° C | 71% | 1018 hPa | 0 mm | - | - | - |
| 1777692649 | 11.11° C | 66% | 1017.9 hPa | 0 mm | - | - | - |
| 1777692332 | 11.11° C | 63% | 1018 hPa | 0 mm | - | - | - |
| 1777690853 | 11.11° C | 65% | 1017.3 hPa | 0 mm | - | - | - |
| 1777690233 | 11.11° C | 66% | 1017.4 hPa | 0 mm | - | - | - |
| 1777688733 | 11.11° C | 64% | 1017.4 hPa | 0 mm | - | - | - |
| 1777687533 | 11.11° C | 64% | 1017.4 hPa | 0 mm | - | - | - |
| 1777687249 | 11.11° C | 65% | 1017.4 hPa | 0 mm | - | - | - |
| 1777686933 | 11.11° C | 66% | 1017.3 hPa | 0 mm | - | - | - |
| 1777686358 | 11.11° C | 67% | 1017.5 hPa | 0 mm | - | - | - |
| 1777683934 | 11.11° C | 66% | 1017.7 hPa | 0 mm | - | - | - |
| 1777683333 | 11.11° C | 66% | 1017.6 hPa | 0 mm | - | - | - |
| 1777682759 | 11.67° C | 66% | 1017.7 hPa | 0 mm | - | - | - |
| 1777681849 | 11.67° C | 67% | 1017.8 hPa | 0 mm | - | - | - |
| 1777681235 | 11.67° C | 67% | 1017.8 hPa | 0 mm | - | - | - |
| 1777676734 | 11.67° C | 67% | 1018.1 hPa | 0 mm | - | - | - |
* Rain latest hour (hover to see other rain measurements)
** Current wind speed in m/s (hover to see current wind gust speed)